createdAt,value
2022-12-17T00:00:09.112Z,97899.81
2022-12-17T00:03:06.602Z,97905.56
2022-12-17T00:05:52.049Z,97901.72
2022-12-17T00:08:37.264Z,97909.69
2022-12-17T00:11:22.237Z,97928.03
2022-12-17T00:14:07.391Z,97929.09
2022-12-17T00:16:52.280Z,97938.97
2022-12-17T00:19:37.186Z,97946.59
2022-12-17T00:22:22.271Z,97947.44
2022-12-17T00:25:07.173Z,97953.72
2022-12-17T00:27:52.018Z,97955.34
2022-12-17T00:30:37.105Z,97952.06
2022-12-17T00:33:22.270Z,97949.88
2022-12-17T00:36:11.106Z,97946.34
2022-12-17T00:38:56.720Z,97964.09
2022-12-17T00:41:42.250Z,97962.75
2022-12-17T00:44:29.012Z,97959.75
2022-12-17T00:47:14.173Z,97966.03
2022-12-17T00:49:59.200Z,97959.19
2022-12-17T00:52:44.585Z,97955.63
2022-12-17T00:55:29.957Z,97962.47
2022-12-17T00:58:30.817Z,97955.38
2022-12-17T01:01:18.995Z,97953.19
2022-12-17T01:04:04.856Z,97955.91
2022-12-17T01:06:50.023Z,97966.56
2022-12-17T01:09:35.283Z,97966.81
2022-12-17T01:12:20.260Z,97955.09
2022-12-17T01:15:05.595Z,97991.16
2022-12-17T01:17:50.699Z,97995.78
2022-12-17T01:20:36.061Z,97998.28
2022-12-17T01:23:21.232Z,98001.84
2022-12-17T01:26:14.106Z,98006.19
2022-12-17T01:28:59.576Z,98029.69
2022-12-17T01:31:45.229Z,98033.22
2022-12-17T01:34:31.089Z,98051.00
2022-12-17T01:37:16.331Z,98052.63
2022-12-17T01:40:01.418Z,98054.56
2022-12-17T01:42:46.508Z,98054.28
2022-12-17T01:45:32.702Z,98055.38
2022-12-17T01:48:21.667Z,98041.94
2022-12-17T01:51:11.446Z,98060.00
2022-12-17T01:54:02.045Z,98073.69
2022-12-17T01:56:47.481Z,98081.88
2022-12-17T01:59:33.511Z,98094.16
2022-12-17T02:02:18.896Z,98107.25
2022-12-17T02:05:04.336Z,98116.28
2022-12-17T02:08:14.247Z,98133.97
2022-12-17T02:11:17.657Z,98137.47
2022-12-17T02:14:18.501Z,98158.78
2022-12-17T02:17:14.763Z,98152.03
2022-12-17T02:20:21.256Z,98146.28
2022-12-17T02:23:19.194Z,98136.66
2022-12-17T02:26:15.634Z,98156.94
2022-12-17T02:29:07.574Z,98120.16
2022-12-17T02:31:54.928Z,98173.31
2022-12-17T02:34:42.113Z,98176.31
2022-12-17T02:37:35.994Z,98171.66
2022-12-17T02:40:21.253Z,98175.69
2022-12-17T02:43:07.948Z,98166.13
2022-12-17T02:45:56.287Z,98165.84
2022-12-17T02:48:43.026Z,98167.78
2022-12-17T02:51:29.550Z,98170.22
2022-12-17T02:54:14.733Z,98165.00
2022-12-17T02:56:59.745Z,98177.94
2022-12-17T02:59:44.686Z,98183.91
2022-12-17T03:02:34.409Z,98183.63
2022-12-17T03:05:43.849Z,98181.97
2022-12-17T03:08:25.786Z,98191.50
2022-12-17T03:11:10.984Z,98206.06
2022-12-17T03:13:55.955Z,98214.59
2022-12-17T03:16:43.802Z,98223.88
2022-12-17T03:19:29.572Z,98184.22
2022-12-17T03:22:14.528Z,98208.88
2022-12-17T03:24:59.475Z,98205.59
2022-12-17T03:27:44.615Z,98192.75
2022-12-17T03:30:35.566Z,98204.28
2022-12-17T03:33:21.248Z,98186.19
2022-12-17T03:36:06.411Z,98211.50
2022-12-17T03:38:50.582Z,98190.44
2022-12-17T03:41:35.741Z,98221.63
2022-12-17T03:44:20.843Z,98224.00
2022-12-17T03:47:05.705Z,98238.53
2022-12-17T03:49:53.248Z,98243.03
2022-12-17T03:52:38.583Z,98252.00
2022-12-17T03:55:23.710Z,98266.06
2022-12-17T03:58:17.759Z,98257.63
2022-12-17T04:01:02.664Z,98279.97
2022-12-17T04:03:47.687Z,98278.28
2022-12-17T04:06:32.965Z,98279.84
2022-12-17T04:09:18.282Z,98290.19
2022-12-17T04:12:03.447Z,98294.66
2022-12-17T04:14:48.592Z,98309.84
2022-12-17T04:17:33.767Z,98307.63
2022-12-17T04:20:18.969Z,98300.78
2022-12-17T04:23:04.502Z,98300.34
2022-12-17T04:25:49.607Z,98325.44
2022-12-17T04:28:34.671Z,98318.53
2022-12-17T04:31:19.658Z,98317.38
2022-12-17T04:34:05.151Z,98320.31
2022-12-17T04:36:50.313Z,98321.94
2022-12-17T04:39:35.598Z,98326.56
2022-12-17T04:42:20.823Z,98331.28
2022-12-17T04:45:06.021Z,98328.56
2022-12-17T04:47:50.999Z,98324.16
2022-12-17T04:50:36.004Z,98335.13
2022-12-17T04:53:23.462Z,98337.69
2022-12-17T04:56:08.827Z,98341.66
2022-12-17T04:59:00.531Z,98343.13
2022-12-17T05:01:46.618Z,98351.78
2022-12-17T05:04:31.803Z,98356.09
2022-12-17T05:07:19.910Z,98346.63
2022-12-17T05:10:13.337Z,98359.81
2022-12-17T05:12:58.299Z,98357.81
2022-12-17T05:15:46.050Z,98353.06
2022-12-17T05:18:33.622Z,98353.88
2022-12-17T05:21:18.872Z,98348.25
2022-12-17T05:24:03.818Z,98358.00
2022-12-17T05:26:48.677Z,98360.66
2022-12-17T05:29:34.035Z,98368.44
2022-12-17T05:32:19.183Z,98372.44
2022-12-17T05:35:04.148Z,98382.19
2022-12-17T05:37:50.062Z,98373.47
2022-12-17T05:40:35.299Z,98392.78
2022-12-17T05:43:26.022Z,98391.75
2022-12-17T05:46:10.978Z,98399.44
2022-12-17T05:48:56.290Z,98406.69
2022-12-17T05:51:41.876Z,98402.47
2022-12-17T05:54:27.571Z,98408.66
2022-12-17T05:57:13.363Z,98403.88
2022-12-17T05:59:58.905Z,98419.25
2022-12-17T06:02:44.710Z,98420.78
2022-12-17T06:05:31.016Z,98425.50
2022-12-17T06:08:27.196Z,98436.03
2022-12-17T06:11:22.582Z,98437.50
2022-12-17T06:14:07.618Z,98441.03
2022-12-17T06:16:52.815Z,98452.78
2022-12-17T06:19:37.955Z,98453.03
2022-12-17T06:22:22.927Z,98467.03
2022-12-17T06:25:08.193Z,98466.03
2022-12-17T06:27:53.114Z,98459.44
2022-12-17T06:30:38.370Z,98467.22
2022-12-17T06:33:29.044Z,98479.50
2022-12-17T06:36:21.969Z,98490.59
2022-12-17T06:39:08.271Z,98476.28
2022-12-17T06:41:54.779Z,98487.69
2022-12-17T06:44:47.375Z,98493.97
2022-12-17T06:47:32.635Z,98516.59
2022-12-17T06:50:17.800Z,98521.13
2022-12-17T06:53:02.671Z,98503.09
2022-12-17T06:55:48.014Z,98522.44
2022-12-17T06:58:38.428Z,98529.78
2022-12-17T07:01:23.860Z,98531.53
2022-12-17T07:04:09.010Z,98539.25
2022-12-17T07:06:53.989Z,98533.81
2022-12-17T07:09:39.256Z,98549.34
2022-12-17T07:12:39.327Z,98546.22
2022-12-17T07:15:24.894Z,98534.38
2022-12-17T07:18:18.172Z,98561.75
2022-12-17T07:21:03.583Z,98563.63
2022-12-17T07:23:49.328Z,98572.09
2022-12-17T07:26:34.838Z,98573.16
2022-12-17T07:29:20.451Z,98570.34
2022-12-17T07:32:05.750Z,98577.78
2022-12-17T07:34:51.351Z,98587.84
2022-12-17T07:37:36.394Z,98594.13
2022-12-17T07:40:22.340Z,98581.41
2022-12-17T07:43:07.456Z,98603.00
2022-12-17T07:45:52.759Z,98615.38
2022-12-17T07:48:37.918Z,98615.69
2022-12-17T07:51:23.145Z,98631.97
2022-12-17T07:54:08.258Z,98633.38
2022-12-17T07:56:53.479Z,98646.50
2022-12-17T07:59:38.440Z,98645.50
2022-12-17T08:02:24.147Z,98654.25
2022-12-17T08:05:09.205Z,98660.00
2022-12-17T08:07:54.259Z,98670.59
2022-12-17T08:10:39.590Z,98668.84
2022-12-17T08:13:27.627Z,98666.94
2022-12-17T08:16:13.267Z,98683.00
2022-12-17T08:18:58.740Z,98689.69
2022-12-17T08:21:43.734Z,98692.75
2022-12-17T08:24:29.106Z,98695.47
2022-12-17T08:27:14.150Z,98694.94
2022-12-17T08:29:59.401Z,98706.03
2022-12-17T08:32:44.608Z,98717.16
2022-12-17T08:35:29.526Z,98729.00
2022-12-17T08:38:23.328Z,98727.78
2022-12-17T08:41:08.503Z,98723.38
2022-12-17T08:43:53.645Z,98738.50
2022-12-17T08:46:39.162Z,98735.63
2022-12-17T08:49:24.135Z,98756.56
2022-12-17T08:52:09.451Z,98764.25
2022-12-17T08:54:54.542Z,98758.09
2022-12-17T08:57:39.859Z,98762.94
2022-12-17T09:00:25.837Z,98765.78
2022-12-17T09:03:19.250Z,98754.06
2022-12-17T09:06:04.727Z,98764.97
2022-12-17T09:08:49.939Z,98777.50
2022-12-17T09:11:35.214Z,98786.84
2022-12-17T09:14:20.822Z,98797.81
2022-12-17T09:17:06.104Z,98792.16
2022-12-17T09:19:51.217Z,98798.31
2022-12-17T09:22:36.448Z,98799.16
2022-12-17T09:25:21.754Z,98806.03
2022-12-17T09:28:06.803Z,98805.38
2022-12-17T09:30:51.771Z,98810.00
2022-12-17T09:33:37.753Z,98806.88
2022-12-17T09:36:24.806Z,98811.25
2022-12-17T09:39:10.005Z,98808.03
2022-12-17T09:42:40.360Z,98806.28
2022-12-17T09:45:40.969Z,98819.22
2022-12-17T09:48:37.138Z,98821.50
2022-12-17T09:51:23.195Z,98821.34
2022-12-17T09:54:10.202Z,98826.13
2022-12-17T09:57:10.519Z,98832.19
2022-12-17T09:59:55.696Z,98825.41
2022-12-17T10:02:47.162Z,98835.41
2022-12-17T10:05:41.861Z,98839.56
2022-12-17T10:08:32.963Z,98843.06
2022-12-17T10:11:34.718Z,98836.03
2022-12-17T10:14:21.895Z,98845.53
2022-12-17T10:17:11.894Z,98846.09
2022-12-17T10:20:00.128Z,98834.31
2022-12-17T10:22:45.635Z,98840.09
2022-12-17T10:25:39.545Z,98836.44
2022-12-17T10:28:29.389Z,98827.91
2022-12-17T10:31:15.302Z,98828.75
2022-12-17T10:34:00.866Z,98839.03
2022-12-17T10:36:47.661Z,98840.25
2022-12-17T10:39:36.548Z,98835.47
2022-12-17T10:42:22.568Z,98833.06
2022-12-17T10:45:07.865Z,98845.22
2022-12-17T10:47:53.030Z,98850.34
2022-12-17T10:50:42.895Z,98856.63
2022-12-17T10:53:39.765Z,98849.53
2022-12-17T10:56:25.500Z,98861.59
2022-12-17T10:59:13.442Z,98864.50
2022-12-17T11:02:00.900Z,98865.59
2022-12-17T11:04:51.506Z,98863.59
2022-12-17T11:07:39.704Z,98876.91
2022-12-17T11:10:32.818Z,98871.53
2022-12-17T11:13:22.468Z,98871.69
2022-12-17T11:16:16.865Z,98879.00
2022-12-17T11:19:23.759Z,98883.75
2022-12-17T11:22:16.109Z,98877.00
2022-12-17T11:25:22.195Z,98890.56
2022-12-17T11:28:12.021Z,98896.88
2022-12-17T11:31:12.199Z,98901.44
2022-12-17T11:34:10.373Z,98904.41
2022-12-17T11:37:15.660Z,98901.81
2022-12-17T11:40:10.457Z,98905.06
2022-12-17T11:43:03.429Z,98906.06
2022-12-17T11:46:05.060Z,98899.28
2022-12-17T11:49:05.836Z,98907.66
2022-12-17T11:51:59.298Z,98908.47
2022-12-17T11:54:55.351Z,98913.94
2022-12-17T11:58:08.667Z,98915.25
2022-12-17T12:01:27.176Z,98914.75
2022-12-17T12:04:27.711Z,98915.09
2022-12-17T12:07:37.400Z,98925.44
2022-12-17T12:10:29.455Z,98933.72
2022-12-17T12:13:48.124Z,98925.84
2022-12-17T12:16:59.027Z,98928.50
2022-12-17T12:19:55.466Z,98936.13
2022-12-17T12:22:55.425Z,98929.97
2022-12-17T12:25:58.330Z,98930.97
2022-12-17T12:29:11.354Z,98939.44
2022-12-17T12:32:06.327Z,98942.25
2022-12-17T12:34:56.484Z,98944.47
2022-12-17T12:37:44.702Z,98936.97
2022-12-17T12:40:48.604Z,98943.00
2022-12-17T12:43:48.667Z,98946.97
2022-12-17T12:46:40.011Z,98958.56
2022-12-17T12:49:47.001Z,98955.59
2022-12-17T12:52:41.089Z,98946.56
2022-12-17T12:55:26.399Z,98940.66
2022-12-17T12:58:42.557Z,98954.84
2022-12-17T13:01:28.448Z,98945.88
2022-12-17T13:04:15.938Z,98959.72
2022-12-17T13:06:51.342Z,98961.44
2022-12-17T13:09:20.632Z,98963.03
2022-12-17T13:12:12.011Z,98961.81
2022-12-17T13:14:46.133Z,98972.63
2022-12-17T13:17:31.474Z,98973.66
2022-12-17T13:19:59.106Z,98979.63
2022-12-17T13:22:34.667Z,98973.41
2022-12-17T13:25:19.398Z,98979.25
2022-12-17T13:27:47.471Z,98908.06
2022-12-17T13:30:18.273Z,98992.03
2022-12-17T13:32:54.884Z,98973.56
2022-12-17T13:35:37.732Z,98994.69
2022-12-17T13:38:17.540Z,99005.63
2022-12-17T13:40:47.937Z,98999.59
2022-12-17T13:55:35.433Z,99035.06
2022-12-17T13:58:19.937Z,99032.78
2022-12-17T14:00:51.182Z,99040.56
2022-12-17T14:06:45.202Z,99051.84
2022-12-17T14:09:24.252Z,99054.19
2022-12-17T14:12:15.800Z,99062.53
2022-12-17T14:14:54.288Z,99066.03
2022-12-17T14:17:43.954Z,99070.88
2022-12-17T14:20:35.641Z,99067.00
2022-12-17T14:23:34.786Z,99091.47
2022-12-17T14:26:11.139Z,99092.53
2022-12-17T14:29:02.949Z,99104.25
2022-12-17T14:31:37.309Z,99109.00
2022-12-17T14:34:10.354Z,99125.53
2022-12-17T14:36:43.113Z,99134.19
2022-12-17T14:39:41.885Z,99124.56
2022-12-17T14:42:35.539Z,99132.19
2022-12-17T14:45:28.773Z,99132.38
2022-12-17T14:48:03.405Z,99145.66
2022-12-17T14:50:39.908Z,99153.25
2022-12-17T14:53:36.152Z,99163.34
2022-12-17T14:56:15.665Z,99165.88
2022-12-17T14:58:49.200Z,99174.81
2022-12-17T15:01:20.241Z,99170.53
2022-12-17T15:03:56.965Z,99177.16
2022-12-17T15:06:36.219Z,99183.22
2022-12-17T15:09:08.505Z,99190.59
2022-12-17T15:11:48.615Z,99199.94
2022-12-17T15:14:27.623Z,99199.59
2022-12-17T15:17:12.240Z,99200.69
2022-12-17T15:19:43.570Z,99206.78
2022-12-17T15:22:35.641Z,99203.09
2022-12-17T15:25:09.645Z,99212.59
2022-12-17T15:27:40.525Z,99211.28
2022-12-17T15:30:18.219Z,99218.78
2022-12-17T15:32:48.981Z,99216.06
2022-12-17T15:35:26.587Z,99221.03
2022-12-17T15:38:10.685Z,99221.16
2022-12-17T15:40:47.490Z,99225.91
2022-12-17T15:43:20.613Z,99229.72
2022-12-17T15:45:55.843Z,99231.47
2022-12-17T15:48:44.905Z,99236.94
2022-12-17T15:51:36.050Z,99241.00
2022-12-17T15:54:07.758Z,99240.63
2022-12-17T15:56:40.122Z,99248.47
2022-12-17T15:59:15.608Z,99253.34
2022-12-17T16:01:54.224Z,99247.06
2022-12-17T16:04:25.410Z,99258.44
2022-12-17T16:06:58.840Z,99260.59
2022-12-17T16:09:45.791Z,99270.56
2022-12-17T16:12:16.663Z,99277.94
2022-12-17T16:14:49.804Z,99275.53
2022-12-17T16:17:21.750Z,99298.72
2022-12-17T16:19:53.204Z,99292.75
2022-12-17T16:22:23.913Z,99305.84
2022-12-17T16:24:58.384Z,99304.28
2022-12-17T16:27:49.599Z,99307.84
2022-12-17T16:30:20.695Z,99314.13
2022-12-17T16:35:42.220Z,99305.13
2022-12-17T16:38:11.297Z,99319.72
2022-12-17T16:40:42.373Z,99320.56
2022-12-17T16:43:29.227Z,99321.63
2022-12-17T16:46:10.568Z,99321.16
2022-12-17T16:48:48.800Z,99322.56
2022-12-17T16:51:30.096Z,99325.78
2022-12-17T16:54:08.958Z,99326.22
2022-12-17T16:56:45.669Z,99323.28
2022-12-17T16:59:16.309Z,99328.03
2022-12-17T17:01:53.169Z,99331.00
2022-12-17T17:04:23.748Z,99340.28
2022-12-17T17:09:44.027Z,99349.13
2022-12-17T17:12:28.474Z,99357.56
2022-12-17T17:14:58.706Z,99361.59
2022-12-17T17:17:55.651Z,99366.69
2022-12-17T17:20:35.044Z,99368.00
2022-12-17T17:23:05.088Z,99365.06
2022-12-17T17:25:58.339Z,99379.66
2022-12-17T17:28:30.563Z,99382.72
2022-12-17T17:34:31.464Z,99386.59
2022-12-17T17:37:02.362Z,99392.53
2022-12-17T17:39:42.873Z,99392.34
2022-12-17T17:42:16.439Z,99403.22
2022-12-17T17:44:44.186Z,99407.81
2022-12-17T17:47:18.552Z,99415.00
2022-12-17T17:49:49.415Z,99413.47
2022-12-17T17:55:05.159Z,99439.84
2022-12-17T17:57:33.200Z,99433.94
2022-12-17T18:00:13.611Z,99442.66
2022-12-17T18:02:48.965Z,99444.16
2022-12-17T18:05:22.785Z,99442.50
2022-12-17T18:07:55.288Z,99437.63
2022-12-17T18:10:26.311Z,99440.22
2022-12-17T18:13:14.123Z,99447.31
2022-12-17T18:15:45.131Z,99454.66
2022-12-17T18:18:16.000Z,99460.72
2022-12-17T18:20:48.273Z,99473.59
2022-12-17T18:23:18.501Z,99473.22
2022-12-17T18:25:52.349Z,99471.63
2022-12-17T18:28:26.221Z,99470.41
2022-12-17T18:30:57.414Z,99467.84
2022-12-17T18:33:29.040Z,99481.03
2022-12-17T18:35:59.466Z,99484.97
2022-12-17T18:41:37.811Z,99479.13
2022-12-17T18:44:08.628Z,99495.97
2022-12-17T18:46:39.962Z,99477.34
2022-12-17T18:49:12.211Z,99512.03
2022-12-17T18:51:45.841Z,99515.28
2022-12-17T18:54:27.876Z,99510.66
2022-12-17T18:57:14.072Z,99514.63
2022-12-17T19:02:38.003Z,99520.91
2022-12-17T19:05:11.931Z,99500.13
2022-12-17T19:07:44.634Z,99519.31
2022-12-17T19:10:15.659Z,99523.72
2022-12-17T19:12:49.465Z,99527.66
2022-12-17T19:15:30.504Z,99540.22
2022-12-17T19:18:10.407Z,99553.28
2022-12-17T19:20:39.565Z,99553.34
2022-12-17T19:23:09.641Z,99561.94
2022-12-17T19:25:40.588Z,99562.91
2022-12-17T19:28:17.405Z,99559.81
2022-12-17T19:30:51.307Z,99558.97
2022-12-17T19:33:21.301Z,99569.47
2022-12-17T19:35:56.756Z,99577.47
2022-12-17T19:38:25.444Z,99580.94
2022-12-17T19:40:59.594Z,99583.75
2022-12-17T19:43:38.634Z,99585.84
2022-12-17T19:46:19.242Z,99589.41
2022-12-17T19:48:59.821Z,99587.59
2022-12-17T19:51:30.445Z,99589.28
2022-12-17T19:54:08.886Z,99601.25
2022-12-17T19:56:47.911Z,99599.59
2022-12-17T19:59:25.470Z,99592.16
2022-12-17T20:01:56.012Z,99593.22
2022-12-17T20:07:11.922Z,99611.94
2022-12-17T20:09:45.250Z,99608.69
2022-12-17T20:12:23.838Z,99595.56
2022-12-17T20:14:55.605Z,99611.72
2022-12-17T20:17:44.987Z,99619.75
2022-12-17T20:20:23.705Z,99627.31
2022-12-17T20:22:57.883Z,99631.81
2022-12-17T20:25:36.122Z,99634.97
2022-12-17T20:28:21.979Z,99632.25
2022-12-17T20:30:55.153Z,99626.78
2022-12-17T20:33:29.087Z,99638.19
2022-12-17T20:36:00.151Z,99633.91
2022-12-17T20:38:31.615Z,99625.16
2022-12-17T20:41:00.462Z,99637.47
2022-12-17T20:43:34.984Z,99645.81
2022-12-17T20:46:08.779Z,99648.34
2022-12-17T20:48:39.954Z,99649.19
2022-12-17T20:51:30.952Z,99645.00
2022-12-17T20:54:08.007Z,99642.88
2022-12-17T20:57:03.120Z,99644.19
2022-12-17T20:59:38.084Z,99656.94
2022-12-17T21:02:08.912Z,99651.75
2022-12-17T21:04:46.710Z,99660.31
2022-12-17T21:07:16.207Z,99663.88
2022-12-17T21:09:45.362Z,99673.50
2022-12-17T21:15:07.023Z,99673.03
2022-12-17T21:17:49.397Z,99671.47
2022-12-17T21:20:30.830Z,99671.59
2022-12-17T21:23:02.784Z,99677.44
2022-12-17T21:25:39.247Z,99677.72
2022-12-17T21:28:10.478Z,99677.97
2022-12-17T21:30:52.220Z,99685.31
2022-12-17T21:33:21.144Z,99700.78
2022-12-17T21:35:51.752Z,99698.66
2022-12-17T21:38:19.415Z,99702.81
2022-12-17T21:40:49.742Z,99703.13
2022-12-17T21:43:23.120Z,99716.84
2022-12-17T21:46:00.092Z,99713.97
2022-12-17T21:48:39.662Z,99719.41
2022-12-17T21:51:18.307Z,99715.78
2022-12-17T21:53:58.297Z,99715.41
2022-12-17T21:56:30.939Z,99719.13
2022-12-17T21:59:11.803Z,99712.50
2022-12-17T22:01:46.164Z,99709.19
2022-12-17T22:04:22.911Z,99705.47
2022-12-17T22:06:56.686Z,99713.25
2022-12-17T22:10:22.395Z,99713.38
2022-12-17T22:12:54.302Z,99715.84
2022-12-17T22:15:33.002Z,99718.88
2022-12-17T22:18:15.712Z,99720.63
2022-12-17T22:20:50.295Z,99721.44
2022-12-17T22:23:24.016Z,99733.97
2022-12-17T22:26:04.187Z,99664.50
2022-12-17T22:28:47.050Z,99743.91
2022-12-17T22:31:39.936Z,99736.34
2022-12-17T22:35:03.612Z,99742.97
2022-12-17T22:38:17.895Z,99737.75
2022-12-17T22:44:30.261Z,99745.03
2022-12-17T22:44:42.207Z,99742.63
2022-12-17T22:46:09.251Z,99744.56
2022-12-17T22:48:41.872Z,99730.63
2022-12-17T22:51:23.550Z,99745.38
2022-12-17T22:54:27.990Z,99745.22
2022-12-17T22:57:34.356Z,99746.75
2022-12-17T22:59:58.372Z,99750.06
2022-12-17T23:02:28.446Z,99746.66
2022-12-17T23:04:59.052Z,99751.31
2022-12-17T23:07:32.046Z,99750.69
2022-12-17T23:10:03.540Z,99748.84
2022-12-17T23:12:51.998Z,99762.06
2022-12-17T23:15:36.767Z,99765.59
2022-12-17T23:18:12.235Z,99769.50
2022-12-17T23:20:49.798Z,99770.56
2022-12-17T23:23:23.440Z,99772.72
2022-12-17T23:25:53.708Z,99771.50
2022-12-17T23:28:30.454Z,99767.47
2022-12-17T23:31:01.310Z,99779.84
2022-12-17T23:33:37.748Z,99784.47
2022-12-17T23:36:17.547Z,99786.97
2022-12-17T23:39:01.478Z,99788.03
2022-12-17T23:41:38.534Z,99793.66
2022-12-17T23:44:12.979Z,99794.28
2022-12-17T23:46:46.646Z,99798.72
2022-12-17T23:49:28.434Z,99806.00
2022-12-17T23:51:58.895Z,99813.53
2022-12-17T23:54:32.437Z,99803.09
2022-12-17T23:57:05.922Z,99802.66
2022-12-17T23:59:50.642Z,99814.38
